Time;durP1;ratioP1;P1;durP2;ratioP2;P2;SDS_P1;SDS_P2;PMS_P1;PMS_P2;Temp;Humidity;BMP_temperature;BMP_pressure;BME280_temperature;BME280_humidity;BME280_pressure;Samples;Min_cycle;Max_cycle;Signal;HPM_P1;HPM_P2
2022/10/11 00:00:17;;;;;;;8.57;5.10;;;;;;;14.00;76.79;95279.34;5049450;28;20265;-70
2022/10/11 00:02:45;;;;;;;4.43;3.33;;;;;;;14.01;76.68;95286.41;5049005;28;20489;-72
2022/10/11 00:05:12;;;;;;;4.93;3.30;;;;;;;14.01;76.68;95270.06;5049093;28;20531;-72
2022/10/11 00:07:39;;;;;;;5.32;3.75;;;;;;;13.92;76.90;95269.34;5049154;28;20253;-73
2022/10/11 00:10:07;;;;;;;7.35;4.30;;;;;;;13.96;76.95;95283.06;5049402;28;20207;-72
2022/10/11 00:12:34;;;;;;;6.90;3.63;;;;;;;13.95;77.15;95276.03;5049747;28;20211;-72
2022/10/11 00:15:01;;;;;;;4.55;3.50;;;;;;;13.96;76.99;95266.72;5049743;28;20366;-72
2022/10/11 00:17:27;;;;;;;9.95;5.97;;;;;;;13.95;77.28;95270.56;5049290;28;20220;-71
2022/10/11 00:19:56;;;;;;;9.20;5.43;;;;;;;13.92;77.20;95282.97;5049519;28;20265;-71
2022/10/11 00:22:23;;;;;;;14.75;5.93;;;;;;;13.89;77.61;95272.72;5050758;28;20226;-71
2022/10/11 00:24:51;;;;;;;14.43;5.82;;;;;;;13.88;77.81;95273.84;5068967;28;20206;-70
2022/10/11 00:27:18;;;;;;;6.93;3.88;;;;;;;13.86;78.01;95259.75;5062002;28;20195;-70
2022/10/11 00:29:45;;;;;;;9.30;4.93;;;;;;;13.85;77.80;95267.13;5049175;28;20211;-71
2022/10/11 00:32:12;;;;;;;7.55;4.90;;;;;;;13.81;78.14;95273.56;5048975;28;20210;-71
2022/10/11 00:34:38;;;;;;;10.13;5.32;;;;;;;13.77;78.22;95262.56;5048763;28;20651;-71
2022/10/11 00:37:07;;;;;;;12.23;5.20;;;;;;;13.78;78.37;95271.53;5065589;28;20202;-71
2022/10/11 00:39:34;;;;;;;8.55;4.60;;;;;;;13.73;78.56;95258.09;5052679;28;20211;-70
2022/10/11 00:42:01;;;;;;;4.22;3.53;;;;;;;13.69;78.95;95265.31;5052959;28;20231;-70
2022/10/11 00:44:29;;;;;;;8.57;4.70;;;;;;;13.63;79.11;95264.75;5052712;28;20658;-70
2022/10/11 00:47:00;;;;;;;6.90;3.65;;;;;;;13.61;79.55;95261.56;5051976;28;20720;-70
2022/10/11 00:49:33;;;;;;;6.22;4.13;;;;;;;13.59;79.95;95263.00;5051543;28;20239;-71
2022/10/11 00:52:06;;;;;;;13.30;6.35;;;;;;;13.52;80.09;95269.00;5052109;28;20740;-71
2022/10/11 00:54:39;;;;;;;8.35;5.15;;;;;;;13.49;80.32;95266.91;5052593;28;20655;-70
2022/10/11 00:57:12;;;;;;;9.25;5.75;;;;;;;13.47;80.56;95261.81;5052692;28;20207;-70
2022/10/11 00:59:44;;;;;;;12.48;6.03;;;;;;;13.45;80.77;95258.59;5052748;28;20196;-70
2022/10/11 01:02:13;;;;;;;11.98;7.10;;;;;;;13.37;80.94;95251.31;5052500;28;20694;-70
2022/10/11 01:04:41;;;;;;;9.35;5.05;;;;;;;13.39;80.88;95259.16;5051572;28;20676;-70
2022/10/11 01:07:08;;;;;;;9.10;6.13;;;;;;;13.37;80.83;95267.63;5051624;28;20578;-71
2022/10/11 01:09:37;;;;;;;8.18;4.60;;;;;;;13.31;81.35;95260.78;5052739;28;20207;-72
2022/10/11 01:12:12;;;;;;;27.90;5.85;;;;;;;13.32;81.38;95267.03;5052461;28;20721;-71
2022/10/11 01:15:06;;;;;;;8.82;4.43;;;;;;;13.28;81.54;95264.16;5052343;28;20692;-71
2022/10/11 01:17:41;;;;;;;12.63;6.68;;;;;;;13.24;81.72;95268.66;5052368;28;20231;-71
2022/10/11 01:20:38;;;;;;;12.40;7.53;;;;;;;13.22;81.84;95251.88;5052516;28;20203;-71
2022/10/11 01:23:45;;;;;;;10.43;4.88;;;;;;;13.19;82.06;95255.25;5052668;28;20274;-71
2022/10/11 01:26:39;;;;;;;8.60;4.25;;;;;;;13.12;82.52;95255.72;5040196;28;20200;-71
2022/10/11 01:29:17;;;;;;;9.68;5.60;;;;;;;13.12;82.54;95249.47;5049185;28;20249;-72
2022/10/11 01:31:51;;;;;;;12.00;6.70;;;;;;;13.14;82.49;95241.78;5052019;28;20215;-72
2022/10/11 01:34:26;;;;;;;12.30;4.80;;;;;;;13.11;82.57;95247.91;5052196;28;20292;-72
2022/10/11 01:37:02;;;;;;;9.60;4.82;;;;;;;13.09;82.70;95242.00;5051276;28;20617;-71
2022/10/11 01:39:32;;;;;;;9.13;5.15;;;;;;;13.05;82.94;95249.22;5052123;28;20662;-71
2022/10/11 01:42:03;;;;;;;12.70;6.60;;;;;;;13.04;83.15;95242.16;5051974;28;20211;-71
2022/10/11 01:44:31;;;;;;;7.15;3.90;;;;;;;13.04;83.30;95236.72;5051866;28;20203;-72
2022/10/11 01:46:59;;;;;;;13.25;7.75;;;;;;;13.01;83.33;95240.09;5050810;28;20208;-74
2022/10/11 01:49:26;;;;;;;10.10;6.03;;;;;;;13.01;83.25;95245.53;5051553;28;20235;-71
2022/10/11 01:51:55;;;;;;;14.63;8.13;;;;;;;12.96;83.58;95235.66;5051585;28;20285;-72
2022/10/11 01:54:36;;;;;;;10.98;5.75;;;;;;;13.00;83.60;95243.94;5051683;28;20204;-71
2022/10/11 01:57:45;;;;;;;8.13;5.00;;;;;;;13.00;83.57;95241.22;5051161;28;20200;-71
2022/10/11 02:00:16;;;;;;;9.15;5.70;;;;;;;12.96;83.77;95245.75;5031311;28;20570;-71
2022/10/11 02:03:07;;;;;;;14.15;6.47;;;;;;;12.94;83.83;95259.66;5050903;28;20653;-72
2022/10/11 02:05:39;;;;;;;16.40;5.95;;;;;;;12.94;84.08;95258.88;5048898;28;20272;-71
2022/10/11 02:08:15;;;;;;;13.77;6.72;;;;;;;12.96;83.93;95254.69;5068424;28;20289;-71
2022/10/11 02:10:46;;;;;;;10.73;5.72;;;;;;;13.01;83.76;95246.34;5070701;28;20291;-75
2022/10/11 02:13:18;;;;;;;7.82;4.97;;;;;;;13.01;83.43;95249.06;5070463;28;20252;-71
2022/10/11 02:15:47;;;;;;;13.02;6.00;;;;;;;12.97;83.53;95242.69;5071168;28;20249;-71
2022/10/11 02:18:19;;;;;;;12.15;5.45;;;;;;;12.95;83.19;95227.81;5071055;28;20774;-70
2022/10/11 02:20:48;;;;;;;15.82;7.88;;;;;;;12.94;83.28;95239.81;5071130;28;20260;-71
2022/10/11 02:23:20;;;;;;;10.70;5.20;;;;;;;12.94;83.11;95242.53;5070850;28;20235;-71
2022/10/11 02:25:49;;;;;;;6.72;3.95;;;;;;;12.92;83.09;95239.34;5070461;28;20662;-72
2022/10/11 02:28:20;;;;;;;15.27;8.05;;;;;;;12.90;83.20;95230.72;5055681;28;20205;-71
2022/10/11 02:30:51;;;;;;;10.88;5.93;;;;;;;12.82;83.25;95237.81;5050831;28;20243;-79
2022/10/11 02:33:24;;;;;;;14.88;8.00;;;;;;;12.77;83.91;95236.06;5051163;28;20262;-71
2022/10/11 02:35:58;;;;;;;12.30;7.18;;;;;;;12.77;83.69;95233.34;5050977;28;20253;-70
2022/10/11 02:38:31;;;;;;;13.88;7.05;;;;;;;12.77;83.70;95221.66;5050288;28;20265;-71
2022/10/11 02:41:05;;;;;;;8.45;4.88;;;;;;;12.76;83.99;95229.03;5050620;28;20301;-71
2022/10/11 02:43:38;;;;;;;11.70;5.75;;;;;;;12.79;83.94;95236.53;5050380;28;20607;-69
2022/10/11 02:46:07;;;;;;;8.85;3.97;;;;;;;12.79;83.99;95225.66;5051195;28;20196;-71
2022/10/11 02:48:36;;;;;;;12.43;6.55;;;;;;;12.74;84.38;95231.25;5067454;28;20235;-71
2022/10/11 02:51:04;;;;;;;7.55;5.35;;;;;;;12.75;84.36;95234.78;5070649;28;20206;-71
2022/10/11 02:53:31;;;;;;;9.23;4.65;;;;;;;12.77;84.24;95227.91;5063725;28;20199;-71
2022/10/11 02:55:58;;;;;;;7.60;5.00;;;;;;;12.77;84.13;95225.19;5050094;28;20204;-71
2022/10/11 02:58:25;;;;;;;14.30;6.95;;;;;;;12.78;83.92;95224.06;5049732;28;20258;-71
2022/10/11 03:00:52;;;;;;;12.65;5.05;;;;;;;12.82;83.96;95200.53;5050195;28;20206;-81
2022/10/11 03:03:19;;;;;;;9.10;5.50;;;;;;;12.84;83.84;95221.16;5050510;28;20262;-71
2022/10/11 03:05:47;;;;;;;13.98;7.72;;;;;;;12.80;84.30;95227.25;5050606;28;20567;-71
2022/10/11 03:08:16;;;;;;;11.02;5.63;;;;;;;12.80;84.06;95216.38;5049787;28;20617;-76
2022/10/11 03:10:43;;;;;;;11.13;6.93;;;;;;;12.80;84.14;95213.66;5048616;28;20214;-71
2022/10/11 03:13:10;;;;;;;12.35;6.80;;;;;;;12.79;84.39;95209.34;5049420;28;20598;-71
2022/10/11 03:15:37;;;;;;;8.27;4.78;;;;;;;12.76;84.71;95211.91;5049030;28;20203;-72
2022/10/11 03:18:04;;;;;;;9.35;5.38;;;;;;;12.78;84.44;95218.63;5050026;28;20297;-73
2022/10/11 03:20:30;;;;;;;8.25;4.78;;;;;;;12.78;84.42;95213.19;5049885;28;20199;-71
2022/10/11 03:22:59;;;;;;;7.88;4.25;;;;;;;12.81;84.36;95217.97;5049599;28;20270;-71
2022/10/11 03:25:25;;;;;;;13.45;6.65;;;;;;;12.77;84.40;95217.03;5049872;28;20261;-71
2022/10/11 03:27:52;;;;;;;6.22;4.03;;;;;;;12.77;84.20;95214.31;5049454;28;20276;-74
2022/10/11 03:30:19;;;;;;;9.90;6.22;;;;;;;12.76;84.53;95215.44;5049139;28;20542;-71
2022/10/11 03:32:46;;;;;;;9.70;5.35;;;;;;;12.77;84.46;95211.59;5049521;28;20208;-72
2022/10/11 03:35:13;;;;;;;18.70;8.95;;;;;;;12.75;84.64;95210.31;5049145;28;20246;-71
2022/10/11 03:37:40;;;;;;;15.43;5.85;;;;;;;12.82;84.27;95205.97;5069518;28;20222;-72
2022/10/11 03:40:10;;;;;;;15.32;7.25;;;;;;;12.84;84.03;95210.28;5068983;28;20437;-71
2022/10/11 03:42:37;;;;;;;14.95;6.15;;;;;;;12.78;84.43;95207.75;5069260;28;20256;-71
2022/10/11 03:45:07;;;;;;;14.18;7.18;;;;;;;12.74;84.71;95201.34;5068738;28;20206;-70
2022/10/11 03:47:34;;;;;;;16.52;7.50;;;;;;;12.75;84.72;95208.38;5049375;28;20666;-72
2022/10/11 03:50:01;;;;;;;12.27;6.97;;;;;;;12.77;84.55;95206.16;5049003;28;20223;-72
2022/10/11 03:52:28;;;;;;;10.52;6.15;;;;;;;12.79;84.40;95206.63;5049464;28;20243;-73
2022/10/11 03:54:55;;;;;;;10.23;5.60;;;;;;;12.76;84.55;95199.13;5049483;28;20204;-73
2022/10/11 03:57:23;;;;;;;13.73;6.20;;;;;;;12.74;84.53;95195.91;5048999;28;20571;-77
2022/10/11 03:59:50;;;;;;;11.13;5.30;;;;;;;12.77;84.38;95198.00;5049071;28;20215;-72
2022/10/11 04:02:17;;;;;;;14.20;7.35;;;;;;;12.77;84.63;95194.47;5048969;28;20270;-73
2022/10/11 04:04:44;;;;;;;22.85;11.80;;;;;;;12.75;84.71;95200.22;5050355;28;20437;-73
2022/10/11 04:07:11;;;;;;;18.33;8.13;;;;;;;12.78;84.53;95196.88;5069199;28;20199;-74
2022/10/11 04:09:37;;;;;;;16.85;6.75;;;;;;;12.74;84.61;95195.13;5068394;28;20613;-73
2022/10/11 04:12:04;;;;;;;18.00;6.88;;;;;;;12.73;84.63;95204.41;5068677;28;20199;-73
2022/10/11 04:14:32;;;;;;;8.23;4.88;;;;;;;12.75;84.25;95202.16;5065903;28;20253;-83
2022/10/11 04:16:59;;;;;;;12.88;6.47;;;;;;;12.77;84.55;95200.72;5049548;28;20216;-73
2022/10/11 04:19:26;;;;;;;7.55;4.80;;;;;;;12.77;84.22;95200.72;5049456;28;20226;-74
2022/10/11 04:21:53;;;;;;;5.63;3.90;;;;;;;12.77;84.30;95195.28;5049404;28;20211;-72
2022/10/11 04:24:19;;;;;;;16.77;7.28;;;;;;;12.75;84.43;95208.38;5063180;28;20312;-72
2022/10/11 04:26:46;;;;;;;9.52;6.20;;;;;;;12.79;84.42;95209.34;5049218;28;20227;-72
2022/10/11 04:29:13;;;;;;;14.88;6.90;;;;;;;12.74;84.86;95204.06;5048299;28;20663;-72
2022/10/11 04:31:41;;;;;;;8.00;4.55;;;;;;;12.73;84.50;95191.59;5047975;28;20216;-73
2022/10/11 04:34:08;;;;;;;12.70;6.95;;;;;;;12.79;84.43;95203.91;5048997;28;20204;-72
2022/10/11 04:36:35;;;;;;;10.45;5.90;;;;;;;12.80;84.42;95216.38;5048989;28;20203;-70
2022/10/11 04:39:02;;;;;;;10.48;5.57;;;;;;;12.79;84.35;95203.91;5048448;28;20207;-71
2022/10/11 04:41:29;;;;;;;13.20;5.93;;;;;;;12.77;84.38;95200.72;5048428;28;20212;-72
2022/10/11 04:43:56;;;;;;;7.35;3.92;;;;;;;12.76;84.59;95203.75;5048516;28;20259;-72
2022/10/11 04:46:23;;;;;;;12.70;6.93;;;;;;;12.80;84.32;95202.78;5048995;28;20249;-72
2022/10/11 04:48:51;;;;;;;14.38;7.43;;;;;;;12.77;84.49;95206.16;5054037;28;20759;-72
2022/10/11 04:51:19;;;;;;;19.60;7.97;;;;;;;12.77;84.69;95206.16;5056086;28;20715;-72
2022/10/11 04:53:46;;;;;;;20.88;9.23;;;;;;;12.79;84.82;95203.09;5049005;28;20203;-72
2022/10/11 04:56:14;;;;;;;18.08;8.15;;;;;;;12.72;85.07;95200.88;5049151;28;20208;-72
2022/10/11 04:58:41;;;;;;;21.75;7.47;;;;;;;12.82;84.69;95194.31;5049009;28;20200;-72
2022/10/11 05:01:08;;;;;;;11.15;5.45;;;;;;;12.79;84.72;95193.03;5048481;28;20204;-72
2022/10/11 05:03:35;;;;;;;16.48;6.78;;;;;;;12.88;84.21;95200.34;5048735;28;20227;-72
2022/10/11 05:06:04;;;;;;;9.77;5.85;;;;;;;12.90;84.02;95203.53;5048834;28;20609;-73
2022/10/11 05:08:31;;;;;;;10.00;5.82;;;;;;;12.95;84.12;95203.34;5055678;28;20239;-72
2022/10/11 05:10:58;;;;;;;14.52;6.38;;;;;;;12.92;83.95;95198.56;5068764;28;20619;-72
2022/10/11 05:13:26;;;;;;;11.65;6.80;;;;;;;12.91;83.90;95205.91;5068058;28;20245;-72
2022/10/11 05:15:53;;;;;;;9.15;5.30;;;;;;;12.98;83.95;95199.97;5068384;28;20265;-72
2022/10/11 05:18:20;;;;;;;7.85;4.25;;;;;;;13.00;83.67;95203.94;5068679;28;20277;-72
2022/10/11 05:20:47;;;;;;;14.80;6.53;;;;;;;13.02;83.78;95206.34;5068624;28;20206;-72
2022/10/11 05:23:16;;;;;;;10.52;6.25;;;;;;;13.08;83.49;95210.47;5072140;28;20231;-72
2022/10/11 05:25:42;;;;;;;13.23;6.07;;;;;;;13.18;83.42;95215.56;5072318;28;20268;-72
2022/10/11 05:28:09;;;;;;;12.05;6.15;;;;;;;13.17;83.05;95213.97;5057674;28;20203;-72
2022/10/11 05:30:36;;;;;;;9.70;4.95;;;;;;;13.23;82.88;95223.53;5051841;28;20257;-72
2022/10/11 05:33:03;;;;;;;9.23;5.32;;;;;;;13.28;82.68;95217.88;5061056;28;20234;-72
2022/10/11 05:35:29;;;;;;;11.50;5.43;;;;;;;13.42;82.35;95226.59;5069293;28;20223;-72
2022/10/11 05:37:56;;;;;;;9.80;5.13;;;;;;;13.44;81.92;95221.63;5051927;28;20336;-75
2022/10/11 05:40:24;;;;;;;14.32;5.80;;;;;;;13.47;81.55;95223.69;5051727;28;20265;-72
2022/10/11 05:42:51;;;;;;;15.38;6.28;;;;;;;13.61;81.37;95228.09;5051478;28;20538;-73
2022/10/11 05:45:18;;;;;;;10.95;5.85;;;;;;;13.73;81.24;95239.84;5051921;28;20289;-72
2022/10/11 05:47:45;;;;;;;8.55;4.38;;;;;;;13.66;81.05;95236.06;5051575;28;20207;-72
2022/10/11 05:50:12;;;;;;;12.40;5.03;;;;;;;13.71;81.13;95230.41;5051601;28;20243;-72
2022/10/11 05:52:39;;;;;;;12.63;5.88;;;;;;;13.63;81.34;95221.19;5051749;28;20297;-73
2022/10/11 05:55:07;;;;;;;13.40;5.78;;;;;;;13.65;81.17;95223.59;5051998;28;20269;-72
2022/10/11 05:57:35;;;;;;;12.95;6.65;;;;;;;13.67;80.94;95227.53;5051391;28;20623;-73
2022/10/11 06:00:01;;;;;;;11.73;6.35;;;;;;;13.91;80.52;95232.34;5050660;28;20720;-73
2022/10/11 06:02:28;;;;;;;8.95;4.97;;;;;;;14.02;79.52;95222.63;5050637;28;20211;-73
2022/10/11 06:04:55;;;;;;;10.88;5.45;;;;;;;14.11;79.01;95215.16;5055467;28;20322;-73
2022/10/11 06:07:22;;;;;;;10.98;4.90;;;;;;;14.05;78.71;95213.78;5071636;28;20521;-72
2022/10/11 06:09:50;;;;;;;10.88;5.97;;;;;;;14.12;78.70;95207.78;5071374;28;20731;-72
2022/10/11 06:12:17;;;;;;;7.88;4.57;;;;;;;14.07;79.08;95203.34;5071261;28;20619;-72
2022/10/11 06:14:45;;;;;;;10.35;5.75;;;;;;;13.99;79.30;95217.81;5052315;28;20199;-72
2022/10/11 06:17:12;;;;;;;6.85;4.22;;;;;;;13.94;79.73;95206.38;5050466;28;20223;-72
2022/10/11 06:19:39;;;;;;;11.80;6.32;;;;;;;13.85;80.19;95200.97;5051459;28;20204;-72
2022/10/11 06:22:06;;;;;;;13.18;5.28;;;;;;;13.86;80.16;95211.53;5051362;28;20674;-72
2022/10/11 06:24:32;;;;;;;12.10;5.05;;;;;;;13.87;80.01;95220.50;5051863;28;20235;-72
2022/10/11 06:26:59;;;;;;;9.27;4.82;;;;;;;13.79;79.83;95224.09;5058394;28;20211;-71
2022/10/11 06:29:26;;;;;;;18.38;7.72;;;;;;;13.86;80.07;95224.34;5051286;28;20269;-73
2022/10/11 06:31:54;;;;;;;10.98;5.07;;;;;;;13.73;80.19;95231.66;5051447;28;20212;-71
2022/10/11 06:34:21;;;;;;;12.02;5.85;;;;;;;13.70;80.09;95226.09;5056783;28;20234;-73
2022/10/11 06:36:48;;;;;;;11.70;6.72;;;;;;;13.63;80.68;95226.63;5071287;28;20222;-73
2022/10/11 06:39:14;;;;;;;10.65;5.60;;;;;;;13.66;80.61;95231.41;5053891;28;20203;-73
2022/10/11 06:41:41;;;;;;;13.45;6.28;;;;;;;13.69;82.10;95240.81;5050894;28;20235;-72
2022/10/11 06:44:10;;;;;;;15.07;7.07;;;;;;;13.57;84.48;95238.03;5050355;28;20686;-71
2022/10/11 06:46:37;;;;;;;15.52;7.20;;;;;;;13.43;85.36;95230.91;5050495;28;20736;-72
2022/10/11 06:49:06;;;;;;;22.02;7.88;;;;;;;13.58;85.22;95239.63;5050406;28;20285;-73
2022/10/11 06:51:34;;;;;;;21.17;9.43;;;;;;;13.66;85.03;95247.75;5051062;28;20235;-73
2022/10/11 06:54:01;;;;;;;17.40;7.25;;;;;;;13.61;85.18;95255.31;5050695;28;20258;-72
2022/10/11 06:56:30;;;;;;;18.25;7.30;;;;;;;13.68;85.03;95250.13;5050727;28;20272;-73
2022/10/11 06:58:58;;;;;;;10.38;6.75;;;;;;;13.67;84.74;95259.41;5050337;28;20212;-72
2022/10/11 07:01:26;;;;;;;27.10;13.35;;;;;;;13.66;84.91;95257.84;5050260;28;20559;-72
2022/10/11 07:03:54;;;;;;;15.55;8.23;;;;;;;13.67;85.15;95260.22;5049941;28;20239;-72
2022/10/11 07:06:25;;;;;;;12.48;6.95;;;;;;;13.70;85.25;95256.03;5050014;28;20211;-72
2022/10/11 07:08:52;;;;;;;15.65;7.05;;;;;;;13.87;84.72;95253.19;5050383;28;20208;-73
2022/10/11 07:11:22;;;;;;;15.40;7.50;;;;;;;14.05;84.02;95237.50;5050266;28;20397;-73
2022/10/11 07:13:49;;;;;;;16.90;8.07;;;;;;;14.01;83.76;95231.91;5050343;28;20277;-73
2022/10/11 07:16:17;;;;;;;13.25;6.82;;;;;;;14.10;83.11;95229.91;5049784;28;20234;-72
2022/10/11 07:18:44;;;;;;;25.90;12.52;;;;;;;14.00;83.76;95230.31;5049224;28;20617;-73
2022/10/11 07:21:13;;;;;;;26.75;13.52;;;;;;;14.04;83.79;95235.91;5049494;28;20207;-73
2022/10/11 07:23:42;;;;;;;18.10;7.45;;;;;;;14.05;83.23;95241.03;5049372;28;20203;-73
2022/10/11 07:26:10;;;;;;;16.92;7.68;;;;;;;14.22;82.86;95257.19;5054524;28;20199;-73
2022/10/11 07:28:38;;;;;;;21.75;8.25;;;;;;;14.20;82.52;95251.31;5052603;28;20195;-73
2022/10/11 07:31:06;;;;;;;15.32;7.93;;;;;;;14.21;82.43;95247.41;5050089;28;20207;-73
2022/10/11 07:33:33;;;;;;;17.45;9.63;;;;;;;14.28;81.89;95248.81;5049626;28;20204;-73
2022/10/11 07:36:00;;;;;;;18.20;8.13;;;;;;;14.31;81.61;95239.97;5043282;28;20598;-71
2022/10/11 07:38:27;;;;;;;30.80;12.80;;;;;;;14.39;81.58;95241.81;5039836;28;20568;-72
2022/10/11 07:40:56;;;;;;;13.20;7.00;;;;;;;14.53;80.82;95245.06;5049460;28;20253;-70
2022/10/11 07:43:23;;;;;;;15.15;7.53;;;;;;;15.06;79.39;95238.66;5049550;28;20207;-73
2022/10/11 07:45:53;;;;;;;15.70;7.65;;;;;;;15.23;77.96;95237.63;5048519;28;20227;-72
2022/10/11 07:48:20;;;;;;;16.65;8.15;;;;;;;15.30;77.71;95243.34;5063375;28;20214;-70
2022/10/11 07:50:47;;;;;;;19.65;7.72;;;;;;;15.44;77.73;95238.31;5068641;28;20242;-70
2022/10/11 07:53:14;;;;;;;19.00;8.30;;;;;;;15.52;75.98;95240.13;5069369;28;20241;-72
2022/10/11 07:55:41;;;;;;;13.77;6.90;;;;;;;15.32;75.13;95238.31;5069103;28;20252;-72
2022/10/11 07:58:10;;;;;;;19.08;7.53;;;;;;;15.31;75.76;95249.59;5068557;28;20612;-72
2022/10/11 08:00:37;;;;;;;12.45;6.20;;;;;;;14.90;75.75;95241.25;5058967;28;20709;-69
2022/10/11 08:03:05;;;;;;;14.80;7.75;;;;;;;14.91;75.87;95233.88;5064582;28;20206;-71
2022/10/11 08:05:32;;;;;;;12.45;6.72;;;;;;;14.94;76.01;95239.44;5068256;28;20261;-69
2022/10/11 08:07:59;;;;;;;14.32;6.95;;;;;;;14.96;76.15;95230.13;5068060;28;20272;-70
2022/10/11 08:10:25;;;;;;;10.32;5.28;;;;;;;14.96;75.91;95235.59;5068601;28;20244;-70
2022/10/11 08:12:53;;;;;;;13.18;6.97;;;;;;;14.80;76.81;95230.78;5069322;28;20288;-70
2022/10/11 08:15:22;;;;;;;13.20;6.57;;;;;;;14.98;75.89;95244.22;5059369;28;20227;-71
2022/10/11 08:17:49;;;;;;;12.75;7.05;;;;;;;15.05;75.77;95247.97;5048826;28;20689;-70
2022/10/11 08:20:15;;;;;;;14.95;6.82;;;;;;;15.16;75.13;95254.59;5047943;28;20204;-70
2022/10/11 08:22:43;;;;;;;11.50;6.05;;;;;;;15.04;75.18;95259.22;5050620;28;20206;-70
2022/10/11 08:25:09;;;;;;;15.63;7.00;;;;;;;15.14;75.13;95254.13;5067978;28;20284;-71
2022/10/11 08:27:36;;;;;;;16.48;10.25;;;;;;;15.47;74.19;95253.19;5050806;28;20199;-71
2022/10/11 08:30:04;;;;;;;17.20;6.82;;;;;;;15.56;73.34;95251.97;5048059;28;20207;-70
2022/10/11 08:32:32;;;;;;;12.60;5.75;;;;;;;15.52;73.33;95251.03;5048648;28;20575;-71
2022/10/11 08:34:59;;;;;;;10.27;5.60;;;;;;;15.45;73.31;95253.53;5047944;28;20211;-71
2022/10/11 08:37:27;;;;;;;11.82;6.05;;;;;;;15.83;72.91;95249.66;5048156;28;20236;-71
2022/10/11 08:39:53;;;;;;;16.92;9.98;;;;;;;15.96;71.40;95253.94;5048852;28;20230;-71
2022/10/11 08:42:32;;;;;;;15.18;6.32;;;;;;;16.07;72.00;95249.56;5048043;28;20269;-71
2022/10/11 08:45:02;;;;;;;13.00;6.40;;;;;;;15.78;72.92;95250.69;5061466;28;20779;-69
2022/10/11 08:47:36;;;;;;;16.90;6.07;;;;;;;15.45;74.59;95256.25;5048580;28;20433;-71
2022/10/11 08:50:06;;;;;;;17.15;7.95;;;;;;;15.44;75.37;95253.91;5047961;28;20652;-71
2022/10/11 08:52:44;;;;;;;17.38;7.25;;;;;;;15.86;74.48;95248.94;5058335;28;20253;-68
2022/10/11 08:55:18;;;;;;;17.60;7.20;;;;;;;16.14;73.03;95255.22;5064097;28;20199;-71
2022/10/11 08:57:51;;;;;;;10.88;5.93;;;;;;;15.78;73.78;95249.88;5050969;28;20724;-71
2022/10/11 09:00:19;;;;;;;13.60;6.88;;;;;;;16.04;73.75;95244.78;5052365;28;20686;-69
2022/10/11 09:02:57;;;;;;;20.50;7.60;;;;;;;16.22;72.53;95248.84;5052767;28;20320;-73
2022/10/11 09:05:27;;;;;;;14.85;6.95;;;;;;;16.43;71.38;95234.16;5051839;28;20215;-69
2022/10/11 09:08:04;;;;;;;17.70;10.52;;;;;;;16.53;70.76;95241.88;5051623;28;20265;-70
2022/10/11 09:10:56;;;;;;;12.63;6.43;;;;;;;16.61;70.78;95240.91;5052552;28;20196;-71
2022/10/11 09:13:41;;;;;;;11.52;5.55;;;;;;;16.65;70.19;95241.81;5052199;28;20281;-69
2022/10/11 09:16:19;;;;;;;12.32;6.35;;;;;;;16.52;70.85;95243.81;5051758;28;20671;-70
2022/10/11 09:19:05;;;;;;;16.15;7.00;;;;;;;16.41;71.33;95241.91;5052372;28;20203;-69
2022/10/11 09:21:40;;;;;;;15.02;7.22;;;;;;;16.52;70.61;95229.31;5051356;28;20620;-70
2022/10/11 09:24:20;;;;;;;12.85;6.47;;;;;;;16.91;68.84;95239.38;5051399;28;20235;-69
2022/10/11 09:26:55;;;;;;;12.75;6.60;;;;;;;17.18;68.02;95239.63;5059454;28;20226;-70
2022/10/11 09:29:39;;;;;;;11.98;5.85;;;;;;;17.38;66.86;95230.31;5047622;28;20196;-72
2022/10/11 09:32:14;;;;;;;11.25;5.95;;;;;;;17.57;65.89;95238.59;5046807;28;20231;-71
2022/10/11 09:34:43;;;;;;;10.75;5.68;;;;;;;17.45;66.00;95230.50;5052543;28;20294;-70
2022/10/11 09:37:20;;;;;;;14.73;6.57;;;;;;;17.51;66.30;95234.53;5052482;28;20219;-70
2022/10/11 09:39:55;;;;;;;18.48;10.52;;;;;;;17.68;65.70;95222.44;5071113;28;20217;-69
2022/10/11 09:42:22;;;;;;;16.45;10.30;;;;;;;18.08;64.98;95238.56;5070463;28;20202;-70
2022/10/11 09:44:50;;;;;;;11.15;6.50;;;;;;;17.94;64.97;95224.53;5070757;28;20239;-69
2022/10/11 09:47:19;;;;;;;13.13;7.50;;;;;;;18.09;64.56;95221.75;5071046;28;20682;-69
2022/10/11 09:49:52;;;;;;;16.67;9.90;;;;;;;17.72;65.48;95218.63;5070632;28;20485;-70
2022/10/11 09:52:21;;;;;;;17.85;10.73;;;;;;;17.64;65.92;95219.59;5070736;28;20203;-70
2022/10/11 09:54:50;;;;;;;17.55;9.75;;;;;;;17.67;65.45;95218.88;5071379;28;20264;-69
2022/10/11 09:57:19;;;;;;;16.05;10.07;;;;;;;18.03;64.91;95220.47;5071110;28;20722;-70
2022/10/11 09:59:58;;;;;;;17.27;9.85;;;;;;;18.24;64.96;95211.06;5070985;28;20256;-70
2022/10/11 10:02:25;;;;;;;16.88;9.82;;;;;;;18.07;64.34;95213.06;5071736;28;20205;-70
2022/10/11 10:05:14;;;;;;;15.82;10.07;;;;;;;17.97;65.62;95207.38;5070804;28;20288;-70
2022/10/11 10:07:58;;;;;;;16.48;10.80;;;;;;;18.61;63.96;95197.66;5069759;28;20653;-70
2022/10/11 10:10:33;;;;;;;16.00;10.25;;;;;;;19.02;62.80;95202.31;5071365;28;20206;-69
2022/10/11 10:13:02;;;;;;;17.50;11.07;;;;;;;19.14;62.44;95193.09;5071279;28;20277;-70
2022/10/11 10:15:31;;;;;;;14.77;9.68;;;;;;;18.95;62.64;95202.22;5070929;28;20292;-71
2022/10/11 10:17:58;;;;;;;18.15;10.15;;;;;;;18.50;63.57;95202.94;5071074;28;20207;-70
2022/10/11 10:20:30;;;;;;;15.48;9.50;;;;;;;18.63;63.28;95196.16;5070779;28;20276;-71
2022/10/11 10:22:58;;;;;;;16.45;10.68;;;;;;;18.68;64.05;95192.31;5070016;28;20214;-70
2022/10/11 10:25:34;;;;;;;18.08;9.68;;;;;;;18.85;62.93;95186.34;5070617;28;20236;-71
2022/10/11 10:28:03;;;;;;;17.67;10.00;;;;;;;19.04;63.18;95186.28;5043243;28;20195;-71
2022/10/11 10:30:30;;;;;;;15.50;10.27;;;;;;;18.87;62.92;95189.50;5050411;28;20296;-72
2022/10/11 10:33:02;;;;;;;17.40;9.88;;;;;;;18.51;62.94;95193.56;5050379;28;20250;-71
2022/10/11 10:35:36;;;;;;;17.60;10.38;;;;;;;19.16;61.85;95180.56;5053296;28;20200;-71
2022/10/11 10:38:15;;;;;;;17.30;11.02;;;;;;;19.83;60.75;95175.28;5069904;28;20206;-70
2022/10/11 10:40:47;;;;;;;18.08;10.52;;;;;;;19.02;62.53;95172.09;5070133;28;20658;-71
2022/10/11 10:43:17;;;;;;;15.85;9.68;;;;;;;18.97;62.59;95166.94;5064701;28;20278;-72
2022/10/11 10:46:12;;;;;;;16.67;10.18;;;;;;;18.94;61.79;95170.41;5037395;28;20702;-70
2022/10/11 10:48:47;;;;;;;15.77;9.65;;;;;;;19.11;62.61;95166.38;5050917;28;20654;-70
2022/10/11 10:51:24;;;;;;;18.60;10.30;;;;;;;19.19;61.56;95179.06;5050136;28;20706;-71
2022/10/11 10:53:59;;;;;;;17.05;10.65;;;;;;;18.55;62.88;95172.47;5048831;28;20837;-71
2022/10/11 10:56:31;;;;;;;18.25;10.15;;;;;;;19.42;61.11;95154.25;5041931;28;20236;-73
2022/10/11 10:59:17;;;;;;;15.77;9.80;;;;;;;19.41;60.74;95158.16;5062696;28;20226;-70
2022/10/11 11:01:53;;;;;;;15.65;10.07;;;;;;;19.13;61.47;95159.34;5069883;28;20195;-69
2022/10/11 11:04:28;;;;;;;16.20;10.25;;;;;;;18.91;62.21;95162.91;5069991;28;20276;-69
2022/10/11 11:07:03;;;;;;;16.77;9.88;;;;;;;18.56;62.70;95152.09;5070032;28;20234;-69
2022/10/11 11:09:42;;;;;;;16.13;9.25;;;;;;;18.32;63.67;95147.72;5030591;28;20760;-69
2022/10/11 11:12:22;;;;;;;16.55;10.50;;;;;;;18.27;64.71;95152.75;5028867;28;20199;-68
2022/10/11 11:14:58;;;;;;;19.25;10.95;;;;;;;18.27;64.35;95150.78;5048551;28;20268;-69
2022/10/11 11:17:40;;;;;;;16.58;10.15;;;;;;;18.42;63.24;95149.91;5042405;28;20207;-70
2022/10/11 11:20:25;;;;;;;16.75;10.85;;;;;;;18.79;62.46;95143.88;5044363;28;20199;-71
2022/10/11 11:23:02;;;;;;;16.42;10.77;;;;;;;19.32;61.41;95143.91;5042218;28;20234;-71
2022/10/11 11:25:41;;;;;;;16.95;10.40;;;;;;;19.05;62.36;95143.13;5048983;28;20256;-71
2022/10/11 11:28:23;;;;;;;18.00;9.82;;;;;;;18.78;61.74;95131.31;5049285;28;20231;-71
2022/10/11 11:30:57;;;;;;;19.90;11.13;;;;;;;19.10;61.17;95140.88;5041563;28;20325;-71
2022/10/11 11:33:35;;;;;;;17.05;10.80;;;;;;;19.66;60.37;95126.38;5046832;28;20260;-71
2022/10/11 11:36:08;;;;;;;18.10;10.90;;;;;;;19.57;59.64;95133.28;5049032;28;20285;-71
2022/10/11 11:38:44;;;;;;;16.27;10.13;;;;;;;19.16;60.68;95130.34;5036365;28;20200;-69
2022/10/11 11:41:17;;;;;;;18.02;10.25;;;;;;;18.86;62.42;95133.00;5049028;28;20303;-70